createdAt,value
2019-05-05T00:01:05.542Z,11.70
2019-05-05T00:06:14.683Z,11.67
2019-05-05T00:11:35.188Z,12.97
2019-05-05T00:17:07.330Z,12.30
2019-05-05T00:22:15.235Z,13.43
2019-05-05T00:27:25.272Z,16.10
2019-05-05T00:32:32.423Z,17.07
2019-05-05T00:37:39.834Z,25.80
2019-05-05T00:42:47.466Z,14.87
2019-05-05T00:48:18.687Z,14.20
2019-05-05T00:53:26.519Z,14.27
2019-05-05T00:58:35.750Z,16.83
2019-05-05T01:03:44.205Z,13.27
2019-05-05T01:08:52.437Z,11.93
2019-05-05T01:14:00.319Z,11.53
2019-05-05T01:19:08.151Z,11.80
2019-05-05T01:24:17.084Z,12.67
2019-05-05T01:29:25.230Z,14.00
2019-05-05T01:34:37.989Z,14.20
2019-05-05T01:40:06.722Z,11.90
2019-05-05T01:45:14.992Z,11.53
2019-05-05T01:50:24.690Z,13.87
2019-05-05T01:55:32.139Z,12.87
2019-05-05T02:00:39.863Z,14.37
2019-05-05T02:05:47.576Z,11.87
2019-05-05T02:10:55.382Z,11.33
2019-05-05T02:16:04.625Z,13.43
2019-05-05T02:21:14.281Z,13.50
2019-05-05T02:26:24.456Z,13.70
2019-05-05T02:31:59.630Z,12.07
2019-05-05T02:37:07.690Z,12.00
2019-05-05T02:42:16.339Z,11.83
2019-05-05T02:47:37.615Z,12.77
2019-05-05T02:52:46.056Z,12.03
2019-05-05T02:57:54.472Z,12.57
2019-05-05T03:03:04.466Z,12.50
2019-05-05T03:08:13.875Z,13.40
2019-05-05T03:13:24.315Z,13.33
2019-05-05T03:18:33.835Z,12.97
2019-05-05T03:23:43.524Z,13.07
2019-05-05T03:28:56.215Z,13.20
2019-05-05T03:34:05.846Z,14.93
2019-05-05T03:39:20.632Z,12.80
2019-05-05T03:44:35.542Z,12.77
2019-05-05T03:49:44.208Z,12.97
2019-05-05T03:54:54.080Z,14.97
2019-05-05T04:00:04.187Z,12.70
2019-05-05T04:05:20.714Z,13.50
2019-05-05T04:10:28.429Z,13.93
2019-05-05T04:15:37.904Z,12.80
2019-05-05T04:20:45.682Z,14.57
2019-05-05T04:25:54.441Z,15.10
2019-05-05T04:31:04.104Z,17.77
2019-05-05T04:36:11.519Z,12.30
2019-05-05T04:41:19.130Z,15.87
2019-05-05T04:46:26.893Z,13.10
2019-05-05T04:51:47.669Z,13.80
2019-05-05T04:56:49.886Z,11.90
2019-05-05T05:02:00.940Z,14.30
2019-05-05T05:07:08.578Z,14.33
2019-05-05T05:12:16.252Z,16.37
2019-05-05T05:17:29.875Z,12.00
2019-05-05T05:22:37.716Z,15.83
2019-05-05T05:27:45.359Z,12.87
2019-05-05T05:32:53.891Z,11.57
2019-05-05T05:38:01.777Z,10.97
2019-05-05T05:43:13.894Z,10.27
2019-05-05T05:48:34.080Z,11.63
2019-05-05T05:53:41.387Z,10.40
2019-05-05T05:58:49.065Z,10.17
2019-05-05T06:03:56.456Z,10.17
2019-05-05T06:09:04.274Z,9.40
2019-05-05T06:14:11.719Z,8.60
2019-05-05T06:19:19.058Z,8.57
2019-05-05T06:24:27.930Z,8.47
2019-05-05T06:29:35.455Z,9.60
2019-05-05T06:34:44.246Z,10.20
2019-05-05T06:39:54.422Z,9.63
2019-05-05T06:45:09.106Z,10.20
2019-05-05T06:50:16.754Z,10.10
2019-05-05T06:55:24.566Z,7.20
2019-05-05T07:00:34.146Z,8.30
2019-05-05T07:05:43.534Z,5.40
2019-05-05T07:10:50.628Z,6.63
2019-05-05T07:15:58.183Z,4.87
2019-05-05T07:21:05.922Z,6.27
2019-05-05T07:26:14.425Z,6.87
2019-05-05T07:31:23.931Z,5.40
2019-05-05T07:36:59.632Z,5.83
2019-05-05T07:42:07.345Z,5.07
2019-05-05T07:47:15.124Z,7.00
2019-05-05T07:52:23.730Z,5.40
2019-05-05T07:57:31.431Z,6.83
2019-05-05T08:02:39.086Z,4.73
2019-05-05T08:07:46.493Z,5.13
2019-05-05T08:12:54.299Z,4.97
2019-05-05T08:18:19.070Z,4.83
2019-05-05T08:24:06.380Z,5.37
2019-05-05T08:29:35.697Z,5.37
2019-05-05T08:34:56.615Z,5.70
2019-05-05T08:39:54.027Z,2.40
2019-05-05T08:45:01.826Z,6.53
2019-05-05T08:50:13.572Z,16.83
2019-05-05T08:55:20.898Z,3.10
2019-05-05T09:00:29.174Z,3.37
2019-05-05T09:05:37.785Z,1.87
2019-05-05T09:10:45.292Z,3.90
2019-05-05T09:15:54.414Z,2.03
2019-05-05T09:21:01.530Z,3.10
2019-05-05T09:26:23.968Z,2.03
2019-05-05T09:31:34.396Z,2.70
2019-05-05T09:36:43.954Z,4.57
2019-05-05T09:41:53.584Z,1.90
2019-05-05T09:47:01.570Z,2.23
2019-05-05T09:52:09.329Z,1.87
2019-05-05T09:57:17.099Z,4.10
2019-05-05T10:02:24.980Z,5.70
2019-05-05T10:07:34.448Z,2.87
2019-05-05T10:12:44.400Z,1.47
2019-05-05T10:17:54.071Z,1.70
2019-05-05T10:23:01.671Z,2.03
2019-05-05T10:28:09.351Z,1.80
2019-05-05T10:33:16.605Z,2.83
2019-05-05T10:38:24.022Z,2.83
2019-05-05T10:43:31.773Z,1.63
2019-05-05T10:48:39.529Z,2.87
2019-05-05T10:53:47.159Z,2.10
2019-05-05T10:58:55.753Z,1.80
2019-05-05T11:04:03.346Z,3.80
2019-05-05T11:09:13.934Z,1.90
2019-05-05T11:14:22.379Z,2.50
2019-05-05T11:19:30.458Z,2.63
2019-05-05T11:24:38.703Z,1.73
2019-05-05T11:30:04.074Z,2.43
2019-05-05T11:35:13.927Z,3.00
2019-05-05T11:40:32.291Z,5.17
2019-05-05T11:45:39.933Z,8.17
2019-05-05T11:50:47.964Z,6.70
2019-05-05T11:55:55.936Z,2.70
2019-05-05T12:01:04.403Z,3.10
2019-05-05T12:06:14.670Z,3.37
2019-05-05T12:11:24.035Z,4.33
2019-05-05T12:16:34.700Z,1.83
2019-05-05T12:21:44.170Z,3.53
2019-05-05T12:27:03.675Z,3.80
2019-05-05T12:32:12.938Z,3.17
2019-05-05T12:37:20.548Z,3.10
2019-05-05T12:42:28.243Z,3.50
2019-05-05T12:47:53.722Z,3.57
2019-05-05T12:53:01.338Z,2.93
2019-05-05T12:58:09.021Z,5.03
2019-05-05T13:03:16.885Z,2.90
2019-05-05T13:08:24.798Z,2.87
2019-05-05T13:13:34.560Z,2.10
2019-05-05T13:18:42.571Z,3.33
2019-05-05T13:24:07.774Z,2.40
2019-05-05T13:29:15.133Z,1.73
2019-05-05T13:34:22.417Z,2.27
2019-05-05T13:39:29.750Z,1.70
2019-05-05T13:44:57.428Z,2.30
2019-05-05T13:50:10.929Z,1.70
2019-05-05T13:55:18.888Z,2.87
2019-05-05T14:00:27.870Z,2.03
2019-05-05T14:05:35.914Z,2.23
2019-05-05T14:10:43.772Z,2.70
2019-05-05T14:15:51.543Z,1.70
2019-05-05T14:20:59.362Z,2.30
2019-05-05T14:26:07.153Z,2.10
2019-05-05T14:31:17.140Z,2.93
2019-05-05T14:36:33.530Z,2.70
2019-05-05T14:41:41.292Z,2.90
2019-05-05T14:46:49.030Z,1.90
2019-05-05T14:51:56.649Z,1.67
2019-05-05T14:57:04.622Z,2.97
2019-05-05T15:02:14.421Z,4.50
2019-05-05T15:07:49.498Z,3.87
2019-05-05T15:13:01.312Z,4.20
2019-05-05T15:18:09.229Z,5.77
2019-05-05T15:23:16.918Z,10.17
2019-05-05T15:28:25.815Z,10.00
2019-05-05T15:33:33.719Z,4.03
2019-05-05T15:38:43.627Z,3.93
2019-05-05T15:43:51.113Z,3.17
2019-05-05T15:48:58.861Z,3.10
2019-05-05T15:54:06.589Z,8.93
2019-05-05T15:59:14.409Z,6.87
2019-05-05T16:04:23.719Z,4.20
2019-05-05T16:09:31.497Z,18.90
2019-05-05T16:14:45.993Z,7.33
2019-05-05T16:19:59.838Z,3.60
2019-05-05T16:25:14.076Z,5.67
2019-05-05T16:30:23.536Z,4.73
2019-05-05T16:35:31.699Z,6.40
2019-05-05T16:40:39.518Z,3.67
2019-05-05T16:45:47.180Z,2.97
2019-05-05T16:50:55.145Z,5.57
2019-05-05T16:56:04.513Z,5.07
2019-05-05T17:01:16.867Z,4.23
2019-05-05T17:06:24.602Z,5.73
2019-05-05T17:11:33.632Z,3.10
2019-05-05T17:17:03.847Z,2.13
2019-05-05T17:22:24.717Z,4.30
2019-05-05T17:27:48.605Z,3.60
2019-05-05T17:32:49.212Z,7.70
2019-05-05T17:38:04.337Z,21.93
2019-05-05T17:43:25.772Z,14.27
2019-05-05T17:48:45.839Z,7.93
2019-05-05T17:54:27.306Z,9.83
2019-05-05T17:59:34.729Z,10.50
2019-05-05T18:04:44.427Z,16.63
2019-05-05T18:09:56.560Z,15.83
2019-05-05T18:15:04.802Z,9.50
2019-05-05T18:20:12.988Z,12.07
2019-05-05T18:25:20.359Z,9.17
2019-05-05T18:30:27.610Z,10.40
2019-05-05T18:35:34.815Z,7.50
2019-05-05T18:40:44.078Z,7.07
2019-05-05T18:46:02.085Z,6.40
2019-05-05T18:51:09.395Z,10.40
2019-05-05T18:56:16.685Z,9.70
2019-05-05T19:01:44.552Z,11.53
2019-05-05T19:07:20.156Z,12.53
2019-05-05T19:12:27.912Z,10.77
2019-05-05T19:17:35.374Z,60.90
2019-05-05T19:22:43.656Z,31.53
2019-05-05T19:27:51.429Z,18.60
2019-05-05T19:32:59.103Z,12.93
2019-05-05T19:38:06.846Z,19.60
2019-05-05T19:43:14.813Z,8.03
2019-05-05T19:48:24.501Z,5.93
2019-05-05T19:53:35.239Z,5.53
2019-05-05T19:58:55.066Z,6.23
2019-05-05T20:03:51.113Z,11.07
2019-05-05T20:08:59.014Z,8.03
2019-05-05T20:14:10.211Z,9.97
2019-05-05T20:19:15.916Z,9.43
2019-05-05T20:24:24.031Z,7.27
2019-05-05T20:29:36.522Z,9.87
2019-05-05T20:35:15.012Z,7.37
2019-05-05T20:40:25.699Z,6.83
2019-05-05T20:45:35.061Z,17.03
2019-05-05T20:50:43.876Z,13.43
2019-05-05T20:55:51.612Z,11.37
2019-05-05T21:00:59.447Z,20.13
2019-05-05T21:06:07.079Z,14.23
2019-05-05T21:11:14.758Z,13.20
2019-05-05T21:16:23.707Z,26.60
2019-05-05T21:21:34.327Z,26.40
2019-05-05T21:26:55.606Z,20.10
2019-05-05T21:32:04.530Z,11.07
2019-05-05T21:37:14.208Z,10.87
2019-05-05T21:42:23.990Z,9.47
2019-05-05T21:47:31.100Z,7.37
2019-05-05T21:52:57.506Z,6.77
2019-05-05T21:58:23.287Z,7.80
2019-05-05T22:03:35.240Z,5.30
2019-05-05T22:08:42.904Z,7.77
2019-05-05T22:13:50.569Z,5.30
2019-05-05T22:18:58.285Z,6.73
2019-05-05T22:24:23.114Z,10.73
2019-05-05T22:29:31.002Z,5.83
2019-05-05T22:34:38.649Z,8.50
2019-05-05T22:39:46.239Z,5.17
2019-05-05T22:44:53.975Z,4.47
2019-05-05T22:50:04.279Z,6.47
2019-05-05T22:55:13.910Z,6.90
2019-05-05T23:00:28.648Z,7.97
2019-05-05T23:05:49.701Z,5.07
2019-05-05T23:10:57.462Z,7.13
2019-05-05T23:16:30.223Z,5.17
2019-05-05T23:21:46.840Z,6.87
2019-05-05T23:26:55.478Z,6.10
2019-05-05T23:32:03.198Z,5.97
2019-05-05T23:37:11.011Z,4.67
2019-05-05T23:42:18.760Z,6.73
2019-05-05T23:47:26.369Z,4.20
2019-05-05T23:52:35.017Z,5.40
2019-05-05T23:57:43.748Z,5.53
